Etusivu
METAR-TAF:

METAR-TAF

Lentoasemat :

Jammu, Intia

Leveyspiiri: 32-41-21N, Pituuspiiri: 74-50-15E, korkeus merenpinnasta: 314 m

Tämänhetkinen sää

Tämä raportti tehtiin 10 tuntia ja 51 minuuttia sitten, kello 01.00 UTC
Tuuli 3 kn pohjoisesta
Lämpötila 27°C
Kosteus 58%
Ilmanpaine 1000 hPa
Näkyvyys: 6000 m
Muutamia pilviä 2500 ft:n korkeudessa
Hajonneita pilviä 9000 ft:n korkeudessa

METAR: VIJU 220100Z 35003KT 6000 FEW025 BKN090 27/18 Q1000 NOSIG

Aika: 17:21 (11:51 UTC)

Sääennuste

Tämä raportti tehtiin 8 tuntia ja 21 minuuttia sitten, kello 03.30 UTC
Ennuste voimassa 22. päivästä klo 06 UTC - 22. päivään klo 18 UTC
Tuuli 10 kn lännestä
Näkyvyys: 6000 m
Hajanaisia pilviä 2500 ft:n korkeudessa
Hajonneita pilviä 9000 ft:n korkeudessa
Ajoittain
22. päivästä klo 10 UTC - 22. päivään klo 13 UTC
Muutamia pilviä 3000 ft:n korkeudessa, Cumulonimbus.
ukkosmyrsky,

TAF: VIJU 220330Z 2206/2218 27010KT 6000 SCT025 BKN090 TEMPO 2210/2213 TS FEW030CB

Säähavainnot ja -ennusteet yli 4000 lentoasemalta (METAR- ja TAF-raportit).

Käytössä olevat sääasemat on merkitty karttaan keltaisilla ja punaisilla pisteillä.

Aseta hiiri pisteen päälle nähdäksesi sääaseman nimen.

Klikkaa sitten nähdäksesi säähavainnot ja -ennusteet.

Kartan vaihtaminen: klikkaa mustalla rastilla varustettuja vihreitä pisteitä, niin voit zoomata sisään; viivalla varustettua vihreää pistettä, niin voit zoomata ulos tai vihreitä nuolia, niin pääset viereisille kartoille.


METAR-TAF: